Time;durP1;ratioP1;P1;durP2;ratioP2;P2;SDS_P1;SDS_P2;PMS_P1;PMS_P2;Temp;Humidity;BMP_temperature;BMP_pressure;BME280_temperature;BME280_humidity;BME280_pressure;Samples;Min_cycle;Max_cycle;Signal;HPM_P1;HPM_P2
2023/05/05 00:00:41;;;;;;;5.75;1.92;;;17.20;99.90;;;;;;5072085;28;20204;-77
2023/05/05 00:03:12;;;;;;;7.20;2.40;;;17.30;99.90;;;;;;5071474;28;20207;-77
2023/05/05 00:05:43;;;;;;;6.05;2.08;;;17.40;99.90;;;;;;5071555;28;20191;-76
2023/05/05 00:08:15;;;;;;;4.43;1.90;;;17.50;99.90;;;;;;5071407;28;20200;-77
2023/05/05 00:10:49;;;;;;;5.50;1.55;;;17.60;99.90;;;;;;5070620;28;20227;-77
2023/05/05 00:13:23;;;;;;;6.43;2.05;;;17.70;99.90;;;;;;5051062;28;20311;-77
2023/05/05 00:15:54;;;;;;;4.25;1.77;;;17.70;99.90;;;;;;5051776;28;20640;-76
2023/05/05 00:18:27;;;;;;;8.73;1.80;;;17.90;99.90;;;;;;5051644;28;20193;-77
2023/05/05 00:20:58;;;;;;;7.97;2.17;;;18.00;99.90;;;;;;5051863;28;20573;-77
2023/05/05 00:23:29;;;;;;;8.27;1.83;;;18.10;99.90;;;;;;5071976;28;20204;-77
2023/05/05 00:26:00;;;;;;;9.05;2.10;;;18.20;99.90;;;;;;5071472;28;20206;-77
2023/05/05 00:28:33;;;;;;;5.80;1.40;;;18.30;99.90;;;;;;5072657;28;20235;-77
2023/05/05 00:31:04;;;;;;;3.03;1.30;;;18.40;99.90;;;;;;5071436;28;20564;-76
2023/05/05 00:33:35;;;;;;;6.95;1.75;;;18.50;99.90;;;;;;5071344;28;20567;-76
2023/05/05 00:36:07;;;;;;;3.83;1.40;;;18.40;99.90;;;;;;5070898;28;20230;-77
2023/05/05 00:38:38;;;;;;;4.90;1.40;;;18.50;99.90;;;;;;5070902;28;20669;-74
2023/05/05 00:41:09;;;;;;;3.45;1.42;;;18.70;99.90;;;;;;5071162;28;20199;-76
2023/05/05 00:43:43;;;;;;;4.30;1.40;;;18.70;99.90;;;;;;5071121;28;20204;-76
2023/05/05 00:46:24;;;;;;;3.22;1.27;;;18.70;99.90;;;;;;5071667;28;20231;-77
2023/05/05 00:48:56;;;;;;;3.40;1.30;;;18.80;99.90;;;;;;5070562;28;20732;-76
2023/05/05 00:51:28;;;;;;;2.95;1.52;;;19.00;99.90;;;;;;5071060;28;20200;-76
2023/05/05 00:53:59;;;;;;;6.50;1.20;;;19.10;99.90;;;;;;5071160;28;20199;-77
2023/05/05 00:56:30;;;;;;;4.20;1.30;;;19.10;99.90;;;;;;5071212;28;20196;-77
2023/05/05 00:59:04;;;;;;;2.10;0.93;;;19.10;99.90;;;;;;5070809;28;20200;-77
2023/05/05 01:01:35;;;;;;;3.67;1.13;;;19.10;99.90;;;;;;5072887;28;20614;-76
2023/05/05 01:04:06;;;;;;;5.28;1.08;;;19.10;99.90;;;;;;5075290;28;20572;-77
2023/05/05 01:06:50;;;;;;;4.63;1.58;;;19.30;99.90;;;;;;5070567;28;20243;-77
2023/05/05 01:09:32;;;;;;;3.67;0.93;;;19.40;99.90;;;;;;5070500;28;20219;-77
2023/05/05 01:12:10;;;;;;;4.05;1.00;;;19.50;99.90;;;;;;5070727;28;20553;-77
2023/05/05 01:14:50;;;;;;;4.53;1.10;;;19.70;99.90;;;;;;5070652;28;20195;-77
2023/05/05 01:17:25;;;;;;;3.15;1.08;;;19.80;99.90;;;;;;5070512;28;20207;-78
2023/05/05 01:20:10;;;;;;;5.75;1.08;;;19.80;99.90;;;;;;5071185;28;20203;-78
2023/05/05 01:22:46;;;;;;;2.33;1.30;;;19.90;99.90;;;;;;5070385;28;20192;-77
2023/05/05 01:25:51;;;;;;;4.85;1.15;;;20.00;99.90;;;;;;5073447;28;20273;-78
2023/05/05 01:28:32;;;;;;;2.42;0.80;;;20.00;99.90;;;;;;5074388;28;20301;-78
2023/05/05 01:31:34;;;;;;;2.75;0.98;;;20.00;99.90;;;;;;5074848;28;20282;-77
2023/05/05 01:34:10;;;;;;;2.83;0.90;;;20.10;99.90;;;;;;5074181;28;20195;-77
2023/05/05 01:36:46;;;;;;;2.78;0.90;;;20.20;99.90;;;;;;5075100;28;20208;-77
2023/05/05 01:39:20;;;;;;;2.15;0.73;;;20.30;99.90;;;;;;5074441;28;20203;-77
2023/05/05 01:41:54;;;;;;;2.00;0.80;;;20.40;99.90;;;;;;5074554;28;20204;-77
2023/05/05 01:44:25;;;;;;;1.50;0.80;;;20.30;99.90;;;;;;5074368;28;20567;-77
2023/05/05 01:46:57;;;;;;;1.70;0.75;;;20.40;99.90;;;;;;5073962;28;20714;-77
2023/05/05 01:49:30;;;;;;;3.13;0.98;;;20.50;99.90;;;;;;5075292;28;20200;-78
2023/05/05 01:52:03;;;;;;;4.03;0.90;;;20.60;99.90;;;;;;5074813;28;20287;-78
2023/05/05 01:54:36;;;;;;;3.17;0.80;;;20.80;99.90;;;;;;5074500;28;20204;-77
2023/05/05 01:57:10;;;;;;;3.20;0.88;;;20.80;99.90;;;;;;5074047;28;20210;-77
2023/05/05 01:59:42;;;;;;;2.13;0.90;;;21.00;99.90;;;;;;5074110;28;20211;-78
2023/05/05 02:02:14;;;;;;;2.53;1.05;;;21.00;99.90;;;;;;5073624;28;20557;-77
2023/05/05 02:04:48;;;;;;;2.85;0.80;;;21.10;99.90;;;;;;5073630;28;20196;-78
2023/05/05 02:07:21;;;;;;;3.35;0.90;;;21.10;99.90;;;;;;5073748;28;20234;-78
2023/05/05 02:09:53;;;;;;;1.80;0.85;;;20.90;99.90;;;;;;5074308;28;20600;-78
2023/05/05 02:12:25;;;;;;;2.63;0.90;;;20.90;99.90;;;;;;5073579;28;20560;-78
2023/05/05 02:14:59;;;;;;;2.33;0.70;;;21.10;99.90;;;;;;5073947;28;20199;-78
2023/05/05 02:17:30;;;;;;;2.92;0.85;;;21.10;99.90;;;;;;5073848;28;20192;-78
2023/05/05 02:20:05;;;;;;;1.60;0.60;;;21.20;99.90;;;;;;5073735;28;20199;-77
2023/05/05 02:22:37;;;;;;;2.85;0.80;;;21.40;99.90;;;;;;5073561;28;20563;-77
2023/05/05 02:25:09;;;;;;;1.08;0.57;;;21.40;99.90;;;;;;5073292;28;20597;-77
2023/05/05 02:27:43;;;;;;;1.27;0.60;;;21.70;99.90;;;;;;5074435;28;20231;-78
2023/05/05 02:30:19;;;;;;;2.60;0.60;;;21.80;99.90;;;;;;5076954;28;20191;-78
2023/05/05 02:32:55;;;;;;;1.90;0.57;;;22.00;99.90;;;;;;5074790;28;20192;-77
2023/05/05 02:35:41;;;;;;;2.13;0.68;;;22.00;99.90;;;;;;5073179;28;20539;-78
2023/05/05 02:38:20;;;;;;;2.80;0.50;;;21.80;99.90;;;;;;5073500;28;20215;-77
2023/05/05 02:40:53;;;;;;;2.15;0.60;;;21.50;99.90;;;;;;5073720;28;20207;-77
2023/05/05 02:43:26;;;;;;;1.20;0.43;;;21.50;99.90;;;;;;5073877;28;20200;-77
2023/05/05 02:45:57;;;;;;;1.15;0.35;;;21.50;99.90;;;;;;5073446;28;20196;-78
2023/05/05 02:48:28;;;;;;;2.75;0.80;;;21.60;99.90;;;;;;5073735;28;20224;-77
2023/05/05 02:51:01;;;;;;;2.70;0.80;;;21.80;99.90;;;;;;5073844;28;20200;-77
2023/05/05 02:53:32;;;;;;;1.95;0.95;;;21.90;99.90;;;;;;5073943;28;20203;-78
2023/05/05 02:56:12;;;;;;;3.42;0.88;;;21.90;99.90;;;;;;5073101;28;20192;-78
2023/05/05 02:58:48;;;;;;;5.68;0.80;;;21.80;99.90;;;;;;5073124;28;20222;-77
2023/05/05 03:01:31;;;;;;;2.42;0.82;;;21.60;99.90;;;;;;5081359;28;20199;-78
2023/05/05 03:04:09;;;;;;;0.98;0.70;;;21.80;99.90;;;;;;5091167;28;20199;-78
2023/05/05 03:06:45;;;;;;;0.70;0.45;;;21.80;99.90;;;;;;5073460;28;20190;-77
2023/05/05 03:09:23;;;;;;;5.00;0.85;;;21.70;99.90;;;;;;5072793;28;20223;-77
2023/05/05 03:12:01;;;;;;;2.22;0.75;;;21.60;99.90;;;;;;5072715;28;20204;-77
2023/05/05 03:14:37;;;;;;;3.97;0.90;;;21.70;99.90;;;;;;5073352;28;20196;-77
2023/05/05 03:17:08;;;;;;;1.30;0.57;;;21.90;99.90;;;;;;5072816;28;20203;-77
2023/05/05 03:19:43;;;;;;;1.42;0.50;;;22.00;99.90;;;;;;5073301;28;20200;-77
2023/05/05 03:22:16;;;;;;;2.22;0.43;;;22.10;99.90;;;;;;5081621;28;20274;-77
2023/05/05 03:24:52;;;;;;;5.57;0.70;;;22.20;99.90;;;;;;5094344;28;20196;-76
2023/05/05 03:27:23;;;;;;;1.80;0.68;;;22.30;99.90;;;;;;5094488;28;20233;-77
2023/05/05 03:29:54;;;;;;;1.40;0.43;;;22.30;99.90;;;;;;5076550;28;20227;-77
2023/05/05 03:32:26;;;;;;;1.88;0.55;;;22.40;99.90;;;;;;5076238;28;20203;-78
2023/05/05 03:34:57;;;;;;;2.53;0.57;;;22.40;99.90;;;;;;5077069;28;20242;-78
2023/05/05 03:37:30;;;;;;;2.92;0.52;;;22.50;99.90;;;;;;5075205;28;20710;-77
2023/05/05 03:40:01;;;;;;;2.55;0.57;;;22.60;99.90;;;;;;5075369;28;20203;-77
2023/05/05 03:42:32;;;;;;;0.93;0.38;;;22.60;99.90;;;;;;5074557;28;20192;-77
2023/05/05 03:45:03;;;;;;;1.08;0.40;;;22.50;99.90;;;;;;5074540;28;20204;-79
2023/05/05 03:47:34;;;;;;;1.83;0.57;;;22.50;99.90;;;;;;5075205;28;20224;-78
2023/05/05 03:50:06;;;;;;;1.92;0.60;;;22.50;99.90;;;;;;5075933;28;20552;-78
2023/05/05 03:52:39;;;;;;;0.38;0.30;;;22.50;99.90;;;;;;5085573;28;20196;-76
2023/05/05 03:55:10;;;;;;;1.98;0.50;;;22.50;99.90;;;;;;5096140;28;20652;-78
2023/05/05 03:57:41;;;;;;;2.80;0.70;;;22.50;99.90;;;;;;5094414;28;20199;-77
2023/05/05 04:00:14;;;;;;;0.88;0.60;;;22.30;99.90;;;;;;5093744;28;20224;-76
2023/05/05 04:02:45;;;;;;;2.00;0.70;;;22.40;99.90;;;;;;5091768;28;20280;-77
2023/05/05 04:05:16;;;;;;;2.58;0.68;;;22.40;99.90;;;;;;5073549;28;20207;-77
2023/05/05 04:07:49;;;;;;;2.10;0.60;;;22.50;99.90;;;;;;5073007;28;20227;-78
2023/05/05 04:10:20;;;;;;;2.42;0.50;;;22.50;99.90;;;;;;5089955;28;20226;-77
2023/05/05 04:12:52;;;;;;;0.95;0.50;;;22.50;99.90;;;;;;5074106;28;20238;-77
2023/05/05 04:15:23;;;;;;;2.67;0.70;;;22.40;99.90;;;;;;5071939;28;20210;-77
2023/05/05 04:17:54;;;;;;;0.95;0.40;;;22.30;99.90;;;;;;5072182;28;20200;-78
2023/05/05 04:20:27;;;;;;;2.13;0.50;;;22.10;99.90;;;;;;5072704;28;20693;-78
2023/05/05 04:23:00;;;;;;;2.65;0.50;;;22.10;99.90;;;;;;5078081;28;20218;-77
2023/05/05 04:25:31;;;;;;;1.52;0.40;;;22.00;99.90;;;;;;5074033;28;20215;-77
2023/05/05 04:28:02;;;;;;;1.50;0.60;;;22.00;99.90;;;;;;5075437;28;20227;-78
2023/05/05 04:30:33;;;;;;;1.42;0.43;;;22.10;99.90;;;;;;5076718;28;20229;-77
2023/05/05 04:33:04;;;;;;;2.65;0.70;;;22.10;99.40;;;;;;5073785;28;20635;-78
2023/05/05 04:35:35;;;;;;;2.75;0.47;;;22.00;99.10;;;;;;5072630;28;20204;-77
2023/05/05 04:38:08;;;;;;;3.45;0.70;;;22.00;99.90;;;;;;5072912;28;20689;-77
2023/05/05 04:40:42;;;;;;;5.28;0.88;;;22.00;99.90;;;;;;5073133;28;20564;-78
2023/05/05 04:43:13;;;;;;;3.75;0.93;;;22.10;99.90;;;;;;5080469;28;20199;-78
2023/05/05 04:45:53;;;;;;;3.20;1.00;;;22.10;99.90;;;;;;5093064;28;20195;-78
2023/05/05 04:48:24;;;;;;;1.80;0.95;;;22.10;99.90;;;;;;5093381;28;20225;-78
2023/05/05 04:50:55;;;;;;;4.07;0.90;;;22.10;99.90;;;;;;5093577;28;20674;-78
2023/05/05 04:53:28;;;;;;;3.95;1.63;;;22.00;99.90;;;;;;5093419;28;20600;-77
2023/05/05 04:56:01;;;;;;;3.13;1.25;;;22.00;99.90;;;;;;5092270;28;20214;-77
2023/05/05 04:58:32;;;;;;;4.28;0.88;;;22.00;99.90;;;;;;5094605;28;20264;-78
2023/05/05 05:01:03;;;;;;;3.05;0.95;;;22.00;99.90;;;;;;5092221;28;20578;-78
2023/05/05 05:03:34;;;;;;;2.35;1.08;;;22.10;99.90;;;;;;5072760;28;20202;-77
2023/05/05 05:06:05;;;;;;;1.88;1.00;;;22.00;99.90;;;;;;5072797;28;20206;-78
2023/05/05 05:08:38;;;;;;;3.35;1.38;;;21.90;99.90;;;;;;5074682;28;20227;-78
2023/05/05 05:11:09;;;;;;;3.22;0.82;;;21.90;99.90;;;;;;5071927;28;20567;-78
2023/05/05 05:13:40;;;;;;;1.77;0.90;;;21.80;99.90;;;;;;5072612;28;20195;-78
2023/05/05 05:16:11;;;;;;;1.70;0.70;;;21.80;99.90;;;;;;5072614;28;20196;-78
2023/05/05 05:18:42;;;;;;;2.08;0.73;;;21.80;99.90;;;;;;5071876;28;20192;-78
2023/05/05 05:21:14;;;;;;;3.03;0.90;;;21.80;99.90;;;;;;5072568;28;20289;-79
2023/05/05 05:23:46;;;;;;;4.05;1.33;;;21.70;99.90;;;;;;5072635;28;20226;-77
2023/05/05 05:26:18;;;;;;;1.83;0.73;;;21.70;99.90;;;;;;5072390;28;20551;-78
2023/05/05 05:28:51;;;;;;;2.35;0.77;;;21.60;99.90;;;;;;5071607;28;20606;-78
2023/05/05 05:31:22;;;;;;;3.72;1.00;;;21.60;99.90;;;;;;5071836;28;20199;-77
2023/05/05 05:33:53;;;;;;;2.65;0.85;;;21.60;99.90;;;;;;5073243;28;20203;-78
2023/05/05 05:36:24;;;;;;;3.30;0.70;;;21.60;99.90;;;;;;5072028;28;20215;-78
2023/05/05 05:38:57;;;;;;;2.08;0.80;;;21.60;99.90;;;;;;5071921;28;20227;-78
2023/05/05 05:41:28;;;;;;;1.95;0.65;;;21.60;99.90;;;;;;5072140;28;20215;-78
2023/05/05 05:43:59;;;;;;;6.18;0.93;;;21.60;99.90;;;;;;5070836;28;20202;-78
2023/05/05 05:46:30;;;;;;;6.47;1.00;;;21.70;99.90;;;;;;5070506;28;20202;-79
2023/05/05 05:49:02;;;;;;;2.30;0.68;;;21.60;99.90;;;;;;5070723;28;20223;-78
2023/05/05 05:51:33;;;;;;;2.85;0.80;;;21.50;99.90;;;;;;5071445;28;20200;-77
2023/05/05 05:54:06;;;;;;;2.78;1.10;;;21.50;99.90;;;;;;5072350;28;20204;-79
2023/05/05 05:56:37;;;;;;;1.42;0.63;;;21.50;99.90;;;;;;5073189;28;20207;-77
2023/05/05 05:59:09;;;;;;;3.85;1.00;;;21.60;99.90;;;;;;5073404;28;20192;-77
2023/05/05 06:01:40;;;;;;;3.53;1.20;;;21.70;99.90;;;;;;5073036;28;20207;-76
2023/05/05 06:04:12;;;;;;;3.30;0.90;;;21.80;99.90;;;;;;5077075;28;20198;-78
2023/05/05 06:06:43;;;;;;;3.38;1.10;;;21.90;99.90;;;;;;5092913;28;20199;-77
2023/05/05 06:09:16;;;;;;;2.78;1.00;;;22.10;99.90;;;;;;5091611;28;20238;-77
2023/05/05 06:11:47;;;;;;;4.40;1.05;;;22.10;99.90;;;;;;5083814;28;20207;-77
2023/05/05 06:14:18;;;;;;;3.33;0.70;;;22.20;99.90;;;;;;5074816;28;20208;-75
2023/05/05 06:16:51;;;;;;;4.13;1.02;;;22.30;99.90;;;;;;5073463;28;20204;-76
2023/05/05 06:19:22;;;;;;;4.18;0.93;;;22.40;99.90;;;;;;5073811;28;20196;-77
2023/05/05 06:21:53;;;;;;;3.47;1.00;;;22.50;99.90;;;;;;5073744;28;20540;-77
2023/05/05 06:24:26;;;;;;;2.50;0.90;;;22.40;99.90;;;;;;5074055;28;20196;-78
2023/05/05 06:26:58;;;;;;;5.30;1.02;;;22.40;99.90;;;;;;5073403;28;20188;-77
2023/05/05 06:29:29;;;;;;;3.33;1.00;;;22.30;99.90;;;;;;5075841;28;20761;-77
2023/05/05 06:32:01;;;;;;;3.70;0.70;;;22.20;99.90;;;;;;5072669;28;20237;-77
2023/05/05 06:34:33;;;;;;;1.70;0.80;;;22.00;99.90;;;;;;5077757;28;20204;-77
2023/05/05 06:37:04;;;;;;;3.45;1.23;;;21.90;99.90;;;;;;5075047;28;20199;-78
2023/05/05 06:39:37;;;;;;;3.15;0.90;;;21.80;99.90;;;;;;5073152;28;20226;-76
2023/05/05 06:42:08;;;;;;;4.10;1.17;;;21.80;99.90;;;;;;5079667;28;20273;-77
2023/05/05 06:44:39;;;;;;;4.53;1.17;;;21.60;99.90;;;;;;5096085;28;20214;-76
2023/05/05 06:47:10;;;;;;;2.78;0.88;;;21.60;99.90;;;;;;5093157;28;20205;-77
2023/05/05 06:49:42;;;;;;;3.83;1.00;;;21.50;99.90;;;;;;5081913;28;20216;-77
2023/05/05 06:52:13;;;;;;;4.32;1.10;;;21.40;99.90;;;;;;5072950;28;20207;-77
2023/05/05 06:54:46;;;;;;;5.88;1.20;;;21.30;99.90;;;;;;5072825;28;20196;-77
2023/05/05 06:57:17;;;;;;;6.22;1.05;;;21.20;99.90;;;;;;5072825;28;20659;-77
2023/05/05 06:59:48;;;;;;;3.10;0.90;;;21.10;99.90;;;;;;5074464;28;20204;-77
2023/05/05 07:02:21;;;;;;;2.63;0.75;;;20.90;99.90;;;;;;5072435;28;20200;-77
2023/05/05 07:04:54;;;;;;;6.68;1.27;;;20.90;99.90;;;;;;5082763;28;20218;-77
2023/05/05 07:07:25;;;;;;;6.43;1.30;;;20.80;99.90;;;;;;5092893;28;20199;-77
2023/05/05 07:09:58;;;;;;;3.83;1.15;;;20.70;99.90;;;;;;5092518;28;20237;-77
2023/05/05 07:12:31;;;;;;;2.40;1.23;;;20.70;99.90;;;;;;5076862;28;20602;-77
2023/05/05 07:15:03;;;;;;;3.30;1.20;;;20.60;99.90;;;;;;5072545;28;20203;-77
2023/05/05 07:17:34;;;;;;;3.58;1.10;;;20.50;99.90;;;;;;5073300;28;20199;-77
2023/05/05 07:20:05;;;;;;;6.30;1.42;;;20.40;99.90;;;;;;5072324;28;20195;-75
2023/05/05 07:22:36;;;;;;;5.68;1.40;;;20.30;99.90;;;;;;5072870;28;20196;-76
2023/05/05 07:25:10;;;;;;;3.10;0.90;;;20.30;99.90;;;;;;5071692;28;20210;-77
2023/05/05 07:27:42;;;;;;;3.75;1.13;;;20.20;99.90;;;;;;5072161;28;20286;-77
2023/05/05 07:30:13;;;;;;;4.13;1.10;;;20.20;99.90;;;;;;5071776;28;20227;-77
2023/05/05 07:32:45;;;;;;;3.00;1.23;;;20.10;99.90;;;;;;5072688;28;20192;-78
2023/05/05 07:35:16;;;;;;;5.75;0.77;;;20.10;99.90;;;;;;5072193;28;20207;-78
2023/05/05 07:37:48;;;;;;;3.72;1.00;;;20.10;99.90;;;;;;5071987;28;20195;-77
2023/05/05 07:40:21;;;;;;;3.58;1.20;;;20.00;99.90;;;;;;5071878;28;20574;-77
2023/05/05 07:42:52;;;;;;;5.75;1.45;;;20.00;99.90;;;;;;5071808;28;20208;-77
2023/05/05 07:45:23;;;;;;;3.60;1.15;;;20.00;99.90;;;;;;5071581;28;20598;-76
2023/05/05 07:47:54;;;;;;;4.35;1.02;;;19.90;99.90;;;;;;5071682;28;20206;-77
2023/05/05 07:50:25;;;;;;;6.05;1.23;;;19.90;99.90;;;;;;5072291;28;20232;-76
2023/05/05 07:52:57;;;;;;;5.63;1.08;;;19.80;99.90;;;;;;5071747;28;20200;-77
2023/05/05 07:55:30;;;;;;;4.18;1.10;;;19.80;99.90;;;;;;5071613;28;20572;-77
2023/05/05 07:58:02;;;;;;;4.32;1.08;;;19.80;99.90;;;;;;5071760;28;20195;-77
2023/05/05 08:00:33;;;;;;;4.80;1.27;;;19.80;99.90;;;;;;5071684;28;20210;-77
2023/05/05 08:03:04;;;;;;;5.22;1.30;;;19.80;99.90;;;;;;5071252;28;20219;-77
2023/05/05 08:05:35;;;;;;;2.45;1.00;;;19.80;99.90;;;;;;5071216;28;20210;-77
2023/05/05 08:08:07;;;;;;;5.95;1.15;;;19.70;99.90;;;;;;5071871;28;20689;-77
2023/05/05 08:10:40;;;;;;;3.80;1.00;;;19.70;99.90;;;;;;5073617;28;20598;-77
2023/05/05 08:13:11;;;;;;;4.88;1.35;;;19.70;99.90;;;;;;5070448;28;20223;-77
2023/05/05 08:15:43;;;;;;;4.75;1.25;;;19.70;99.90;;;;;;5070940;28;20200;-77
2023/05/05 08:18:14;;;;;;;3.92;1.20;;;19.60;99.90;;;;;;5071325;28;20282;-77
2023/05/05 08:20:46;;;;;;;4.53;1.45;;;19.60;99.90;;;;;;5071062;28;20704;-77
2023/05/05 08:23:17;;;;;;;5.60;1.40;;;19.60;99.90;;;;;;5070894;28;20211;-76
2023/05/05 08:25:50;;;;;;;2.72;1.02;;;19.60;99.90;;;;;;5051164;28;20198;-76
2023/05/05 08:28:21;;;;;;;4.18;1.30;;;19.60;99.90;;;;;;5051500;28;20590;-76
2023/05/05 08:30:53;;;;;;;4.97;1.30;;;19.60;99.90;;;;;;5051255;28;20197;-77
2023/05/05 08:33:24;;;;;;;3.63;1.13;;;19.60;99.90;;;;;;5070613;28;20498;-77
2023/05/05 08:35:55;;;;;;;4.05;1.17;;;19.60;99.90;;;;;;5070767;28;20192;-77
2023/05/05 08:38:26;;;;;;;5.95;1.35;;;19.60;99.90;;;;;;5072223;28;20727;-76
2023/05/05 08:40:59;;;;;;;4.57;1.33;;;19.60;99.90;;;;;;5076382;28;20612;-76
2023/05/05 08:43:30;;;;;;;5.30;1.20;;;19.60;99.90;;;;;;5091729;28;20199;-76
2023/05/05 08:46:02;;;;;;;5.03;1.67;;;19.50;99.90;;;;;;5091344;28;20202;-76
2023/05/05 08:48:35;;;;;;;3.92;1.50;;;19.50;99.90;;;;;;5091307;28;20199;-76
2023/05/05 08:51:08;;;;;;;5.70;1.45;;;19.50;99.90;;;;;;5091066;28;20195;-77
2023/05/05 08:53:58;;;;;;;5.13;1.50;;;19.50;99.90;;;;;;5090900;28;20198;-77
2023/05/05 08:56:39;;;;;;;6.40;1.75;;;19.50;99.90;;;;;;5089474;28;20199;-77
2023/05/05 08:59:11;;;;;;;6.30;1.83;;;19.40;99.90;;;;;;5071132;28;20670;-76
2023/05/05 09:01:43;;;;;;;7.57;2.15;;;19.30;99.90;;;;;;5070549;28;20274;-76
2023/05/05 09:04:17;;;;;;;6.30;2.17;;;19.40;99.90;;;;;;5074798;28;20195;-77
2023/05/05 09:06:49;;;;;;;5.72;2.35;;;19.30;99.90;;;;;;5090969;28;20198;-77
2023/05/05 09:09:21;;;;;;;5.18;2.25;;;19.30;99.90;;;;;;5090636;28;20215;-77
2023/05/05 09:11:55;;;;;;;8.05;2.05;;;19.30;99.90;;;;;;5080027;28;20196;-77
2023/05/05 09:14:26;;;;;;;5.63;2.40;;;19.30;99.90;;;;;;5070988;28;20218;-77
2023/05/05 09:16:59;;;;;;;6.20;2.25;;;19.30;99.90;;;;;;5070418;28;20203;-77
2023/05/05 09:19:30;;;;;;;6.55;2.10;;;19.20;99.90;;;;;;5070753;28;20207;-77
2023/05/05 09:22:02;;;;;;;5.82;2.00;;;19.30;99.90;;;;;;5070561;28;20215;-77
2023/05/05 09:24:33;;;;;;;6.00;1.70;;;19.20;99.90;;;;;;5070727;28;20199;-77
2023/05/05 09:27:24;;;;;;;5.32;2.03;;;19.20;99.90;;;;;;5070721;28;20199;-76
2023/05/05 09:29:56;;;;;;;5.22;1.60;;;19.20;99.90;;;;;;5069706;28;20231;-75
2023/05/05 09:32:27;;;;;;;6.70;1.75;;;19.20;99.90;;;;;;5070878;28;20199;-77
2023/05/05 09:35:02;;;;;;;4.40;1.60;;;19.10;99.90;;;;;;5071318;28;20679;-76
2023/05/05 09:37:33;;;;;;;3.95;2.03;;;19.20;99.90;;;;;;5070696;28;20676;-77
2023/05/05 09:40:07;;;;;;;5.80;1.90;;;19.10;99.90;;;;;;5070794;28;20200;-76
2023/05/05 09:42:43;;;;;;;3.35;1.55;;;19.20;99.90;;;;;;5070117;28;20196;-76
2023/05/05 09:45:28;;;;;;;7.65;2.10;;;19.20;99.90;;;;;;5070912;28;20199;-76
2023/05/05 09:47:59;;;;;;;3.75;1.95;;;19.10;99.90;;;;;;5074093;28;20566;-76
2023/05/05 09:50:31;;;;;;;5.82;2.45;;;19.10;99.90;;;;;;5074816;28;20254;-77
2023/05/05 09:53:04;;;;;;;4.97;1.90;;;19.10;99.90;;;;;;5074301;28;20203;-76
2023/05/05 09:55:36;;;;;;;5.45;1.95;;;19.10;99.90;;;;;;5074073;28;20196;-76
2023/05/05 09:58:26;;;;;;;5.03;1.90;;;19.10;99.90;;;;;;5073773;28;20279;-77
2023/05/05 10:00:58;;;;;;;6.03;1.92;;;19.00;99.90;;;;;;5074086;28;20207;-77
2023/05/05 10:03:29;;;;;;;4.72;1.88;;;19.00;99.90;;;;;;5073676;28;20196;-77
2023/05/05 10:06:01;;;;;;;4.07;1.85;;;19.00;99.90;;;;;;5074302;28;20671;-77
2023/05/05 10:08:33;;;;;;;3.17;1.65;;;19.00;99.90;;;;;;5074175;28;20195;-77
2023/05/05 10:11:05;;;;;;;10.77;2.08;;;19.00;99.90;;;;;;5073956;28;20227;-81
2023/05/05 10:13:41;;;;;;;4.72;2.08;;;19.00;99.90;;;;;;5073447;28;20253;-77
2023/05/05 10:16:14;;;;;;;4.22;1.58;;;19.00;99.90;;;;;;5073721;28;20195;-76
2023/05/05 10:18:47;;;;;;;4.07;1.70;;;19.00;99.90;;;;;;5073399;28;20196;-76
2023/05/05 10:21:23;;;;;;;5.85;2.22;;;19.00;99.90;;;;;;5073371;28;20220;-76
2023/05/05 10:24:05;;;;;;;5.70;1.77;;;18.90;99.90;;;;;;5073916;28;20282;-77
2023/05/05 10:26:40;;;;;;;4.18;1.70;;;19.00;99.90;;;;;;5073433;28;20192;-76
2023/05/05 10:29:22;;;;;;;5.50;1.77;;;18.90;99.90;;;;;;5072853;28;20223;-76
2023/05/05 10:31:55;;;;;;;5.85;1.83;;;19.00;99.90;;;;;;5073307;28;20207;-76
2023/05/05 10:34:29;;;;;;;5.22;1.80;;;19.00;99.90;;;;;;5073217;28;20207;-76
2023/05/05 10:37:01;;;;;;;6.38;1.88;;;18.90;99.90;;;;;;5073301;28;20235;-76
2023/05/05 10:39:33;;;;;;;5.18;1.65;;;18.80;99.90;;;;;;5075452;28;20659;-73
2023/05/05 10:42:05;;;;;;;6.00;1.63;;;18.90;99.90;;;;;;5073872;28;20596;-75
2023/05/05 10:44:38;;;;;;;4.75;1.60;;;18.80;99.90;;;;;;5073313;28;20283;-76
2023/05/05 10:47:10;;;;;;;5.28;1.67;;;18.90;99.90;;;;;;5073097;28;20192;-76
2023/05/05 10:49:47;;;;;;;6.35;1.67;;;18.90;99.90;;;;;;5073017;28;20280;-75
2023/05/05 10:52:27;;;;;;;4.80;1.50;;;18.80;99.90;;;;;;5078653;28;20196;-75
2023/05/05 10:55:09;;;;;;;4.90;1.73;;;18.80;99.90;;;;;;5079828;28;20666;-76
2023/05/05 10:57:43;;;;;;;6.32;1.90;;;18.80;99.90;;;;;;5084940;28;20200;-76
2023/05/05 11:00:52;;;;;;;6.10;1.50;;;18.90;99.90;;;;;;5079149;28;20673;-76
2023/05/05 11:03:25;;;;;;;5.78;1.88;;;18.80;99.90;;;;;;5079156;28;20203;-76
2023/05/05 11:06:15;;;;;;;7.22;1.67;;;18.80;99.90;;;;;;5080017;28;20222;-76
2023/05/05 11:08:47;;;;;;;8.35;1.67;;;18.80;99.90;;;;;;5079984;28;20184;-76
2023/05/05 11:11:18;;;;;;;3.53;1.60;;;18.80;99.90;;;;;;5082380;28;20233;-77
2023/05/05 11:13:49;;;;;;;4.88;1.52;;;18.80;99.90;;;;;;5086626;28;20199;-74
2023/05/05 11:16:49;;;;;;;5.25;1.90;;;18.80;99.90;;;;;;5103095;28;20195;-77
2023/05/05 11:19:50;;;;;;;5.85;1.98;;;18.80;99.90;;;;;;5099344;28;20191;-76
2023/05/05 11:22:21;;;;;;;3.35;1.45;;;18.80;99.90;;;;;;5058862;28;20185;-76
2023/05/05 11:24:52;;;;;;;4.72;1.60;;;18.70;99.90;;;;;;5059195;28;20201;-76
2023/05/05 11:27:25;;;;;;;5.13;1.75;;;18.70;99.90;;;;;;5059457;28;20197;-76
2023/05/05 11:30:12;;;;;;;7.47;1.90;;;18.70;99.90;;;;;;5061282;28;20250;-77
2023/05/05 11:33:05;;;;;;;5.57;2.08;;;18.70;99.90;;;;;;5098528;28;20206;-77
2023/05/05 11:35:58;;;;;;;5.35;1.63;;;18.70;99.90;;;;;;5100775;28;20201;-76
2023/05/05 11:38:39;;;;;;;7.82;1.65;;;18.60;99.90;;;;;;5098575;28;20673;-77
2023/05/05 11:41:15;;;;;;;6.68;1.80;;;18.60;99.90;;;;;;5097878;28;20283;-76
2023/05/05 11:43:49;;;;;;;6.53;1.95;;;18.60;99.90;;;;;;5102016;28;20559;-76
2023/05/05 11:46:20;;;;;;;4.38;1.40;;;18.50;99.90;;;;;;5100732;28;20689;-76
2023/05/05 11:48:54;;;;;;;4.25;1.40;;;18.60;99.90;;;;;;5101426;28;20199;-75
2023/05/05 11:51:26;;;;;;;6.97;1.70;;;18.50;99.90;;;;;;5099752;28;20278;-76
2023/05/05 11:53:57;;;;;;;5.30;1.50;;;18.50;99.90;;;;;;5090769;28;20278;-77
2023/05/05 11:56:28;;;;;;;7.68;1.48;;;18.50;99.90;;;;;;5080046;28;20202;-76
2023/05/05 11:59:12;;;;;;;5.75;1.80;;;18.50;99.90;;;;;;5077907;28;20196;-76
2023/05/05 12:01:44;;;;;;;5.03;1.60;;;18.40;99.90;;;;;;5079599;28;20202;-76
2023/05/05 12:04:17;;;;;;;5.63;1.52;;;18.50;99.90;;;;;;5077623;28;20677;-77
2023/05/05 12:06:49;;;;;;;5.45;1.40;;;18.40;99.90;;;;;;5059933;28;20204;-77
2023/05/05 12:09:22;;;;;;;6.45;1.50;;;18.50;99.90;;;;;;5061754;28;20200;-77
2023/05/05 12:11:54;;;;;;;5.25;1.70;;;18.40;99.90;;;;;;5073764;28;20222;-77
2023/05/05 12:14:25;;;;;;;5.25;1.65;;;18.40;99.90;;;;;;5079989;28;20199;-77
2023/05/05 12:17:00;;;;;;;7.03;1.50;;;18.40;99.90;;;;;;5080570;28;20669;-77
2023/05/05 12:19:33;;;;;;;3.53;1.48;;;18.40;99.90;;;;;;5077591;28;20200;-77
2023/05/05 12:22:06;;;;;;;8.07;1.83;;;18.40;99.90;;;;;;5084168;28;20206;-77
2023/05/05 12:24:37;;;;;;;5.97;1.45;;;18.40;99.90;;;;;;5097204;28;20680;-77
2023/05/05 12:27:12;;;;;;;5.25;1.33;;;18.40;99.90;;;;;;5097944;28;20194;-76
2023/05/05 12:29:43;;;;;;;4.85;1.38;;;18.30;99.90;;;;;;5100002;28;20225;-77
2023/05/05 12:32:22;;;;;;;5.80;1.65;;;18.30;99.90;;;;;;5084837;28;20191;-77
2023/05/05 12:34:57;;;;;;;5.57;1.50;;;18.30;99.90;;;;;;5077370;28;20242;-77
2023/05/05 12:37:29;;;;;;;6.50;1.73;;;18.30;99.90;;;;;;5077804;28;20191;-77
2023/05/05 12:40:00;;;;;;;4.72;1.40;;;18.30;99.90;;;;;;5091322;28;20199;-78
2023/05/05 12:42:31;;;;;;;8.63;1.60;;;18.30;99.90;;;;;;5099766;28;20221;-76
2023/05/05 12:45:02;;;;;;;3.97;1.30;;;18.20;99.90;;;;;;5099405;28;20195;-77
2023/05/05 12:47:35;;;;;;;4.93;1.38;;;18.10;99.90;;;;;;5100325;28;20197;-78
2023/05/05 12:50:11;;;;;;;4.05;1.40;;;18.20;99.90;;;;;;5099333;28;20219;-77
2023/05/05 12:52:46;;;;;;;5.25;1.40;;;18.20;99.90;;;;;;5089482;28;20588;-77
2023/05/05 12:55:18;;;;;;;4.65;1.40;;;18.20;99.90;;;;;;5077561;28;20191;-76
2023/05/05 12:58:05;;;;;;;4.97;1.45;;;18.20;99.90;;;;;;5079258;28;20230;-78
2023/05/05 13:00:36;;;;;;;6.78;1.50;;;18.30;99.90;;;;;;5077697;28;20192;-76
2023/05/05 13:03:09;;;;;;;3.22;1.35;;;18.30;99.90;;;;;;5076154;28;20218;-76
2023/05/05 13:05:42;;;;;;;4.78;1.30;;;18.30;99.90;;;;;;5090049;28;20195;-77
2023/05/05 13:08:13;;;;;;;4.40;1.80;;;18.20;99.90;;;;;;5094376;28;20541;-77
2023/05/05 13:10:59;;;;;;;4.68;1.55;;;18.20;99.90;;;;;;5090598;28;20677;-77
2023/05/05 13:13:33;;;;;;;5.03;1.45;;;18.20;99.90;;;;;;5071751;28;20192;-76
2023/05/05 13:16:04;;;;;;;7.70;1.50;;;18.20;99.90;;;;;;5071504;28;20199;-76
2023/05/05 13:18:45;;;;;;;5.82;1.50;;;18.10;99.90;;;;;;5071402;28;20274;-77
2023/05/05 13:21:18;;;;;;;5.00;1.27;;;18.10;99.90;;;;;;5071010;28;20601;-76